sensor_id;sensor_type;location;lat;lon;timestamp;P1;durP1;ratioP1;P2;durP2;ratioP2
14528;SDS011;7351;51.194;4.098;2023-03-23T00:00:58;2.67;;;2.13;;
14528;SDS011;7351;51.194;4.098;2023-03-23T00:03:27;4.17;;;2.83;;
14528;SDS011;7351;51.194;4.098;2023-03-23T00:05:56;2.80;;;2.60;;
14528;SDS011;7351;51.194;4.098;2023-03-23T00:08:30;4.07;;;2.83;;
14528;SDS011;7351;51.194;4.098;2023-03-23T00:10:57;2.40;;;2.20;;
14528;SDS011;7351;51.194;4.098;2023-03-23T00:13:26;2.60;;;2.40;;
14528;SDS011;7351;51.194;4.098;2023-03-23T00:15:54;2.90;;;2.70;;
14528;SDS011;7351;51.194;4.098;2023-03-23T00:18:22;2.17;;;2.03;;
14528;SDS011;7351;51.194;4.098;2023-03-23T00:20:52;3.43;;;2.53;;
14528;SDS011;7351;51.194;4.098;2023-03-23T00:23:20;3.00;;;2.80;;
14528;SDS011;7351;51.194;4.098;2023-03-23T00:25:50;2.50;;;2.30;;
14528;SDS011;7351;51.194;4.098;2023-03-23T00:28:21;2.60;;;2.40;;
14528;SDS011;7351;51.194;4.098;2023-03-23T00:30:53;2.13;;;2.00;;
14528;SDS011;7351;51.194;4.098;2023-03-23T00:33:22;2.93;;;2.70;;
14528;SDS011;7351;51.194;4.098;2023-03-23T00:35:50;3.43;;;2.37;;
14528;SDS011;7351;51.194;4.098;2023-03-23T00:38:18;2.80;;;2.50;;
14528;SDS011;7351;51.194;4.098;2023-03-23T00:40:45;2.00;;;1.90;;
14528;SDS011;7351;51.194;4.098;2023-03-23T00:43:12;2.17;;;1.90;;
14528;SDS011;7351;51.194;4.098;2023-03-23T00:45:41;2.80;;;2.60;;
14528;SDS011;7351;51.194;4.098;2023-03-23T00:48:09;2.50;;;2.27;;
14528;SDS011;7351;51.194;4.098;2023-03-23T00:50:38;3.40;;;2.50;;
14528;SDS011;7351;51.194;4.098;2023-03-23T00:53:07;3.20;;;2.90;;
14528;SDS011;7351;51.194;4.098;2023-03-23T00:55:34;3.57;;;2.77;;
14528;SDS011;7351;51.194;4.098;2023-03-23T00:58:01;3.27;;;2.33;;
14528;SDS011;7351;51.194;4.098;2023-03-23T01:00:28;2.60;;;2.40;;
14528;SDS011;7351;51.194;4.098;2023-03-23T01:02:55;2.60;;;2.23;;
14528;SDS011;7351;51.194;4.098;2023-03-23T01:05:22;2.50;;;2.30;;
14528;SDS011;7351;51.194;4.098;2023-03-23T01:07:49;2.43;;;2.27;;
14528;SDS011;7351;51.194;4.098;2023-03-23T01:10:17;2.80;;;2.57;;
14528;SDS011;7351;51.194;4.098;2023-03-23T01:12:44;3.40;;;2.97;;
14528;SDS011;7351;51.194;4.098;2023-03-23T01:15:15;3.10;;;2.80;;
14528;SDS011;7351;51.194;4.098;2023-03-23T01:17:43;2.83;;;2.63;;
14528;SDS011;7351;51.194;4.098;2023-03-23T01:20:10;2.40;;;2.20;;
14528;SDS011;7351;51.194;4.098;2023-03-23T01:22:38;2.57;;;2.37;;
14528;SDS011;7351;51.194;4.098;2023-03-23T01:25:06;2.67;;;2.47;;
14528;SDS011;7351;51.194;4.098;2023-03-23T01:27:36;2.67;;;2.47;;
14528;SDS011;7351;51.194;4.098;2023-03-23T01:30:03;2.57;;;2.37;;
14528;SDS011;7351;51.194;4.098;2023-03-23T01:32:31;2.23;;;2.13;;
14528;SDS011;7351;51.194;4.098;2023-03-23T01:34:59;3.30;;;2.90;;
14528;SDS011;7351;51.194;4.098;2023-03-23T01:37:25;3.13;;;2.70;;
14528;SDS011;7351;51.194;4.098;2023-03-23T01:39:53;2.70;;;2.50;;
14528;SDS011;7351;51.194;4.098;2023-03-23T01:42:21;2.97;;;2.47;;
14528;SDS011;7351;51.194;4.098;2023-03-23T01:47:59;2.80;;;2.60;;
14528;SDS011;7351;51.194;4.098;2023-03-23T01:50:31;3.67;;;2.87;;
14528;SDS011;7351;51.194;4.098;2023-03-23T01:53:04;2.60;;;2.40;;
14528;SDS011;7351;51.194;4.098;2023-03-23T01:55:34;2.27;;;2.17;;
14528;SDS011;7351;51.194;4.098;2023-03-23T01:58:04;2.77;;;2.57;;
14528;SDS011;7351;51.194;4.098;2023-03-23T02:00:34;2.43;;;2.30;;
14528;SDS011;7351;51.194;4.098;2023-03-23T02:03:02;2.90;;;2.67;;
14528;SDS011;7351;51.194;4.098;2023-03-23T02:05:30;2.90;;;2.50;;
14528;SDS011;7351;51.194;4.098;2023-03-23T02:08:00;2.33;;;2.13;;
14528;SDS011;7351;51.194;4.098;2023-03-23T02:10:30;2.30;;;2.10;;
14528;SDS011;7351;51.194;4.098;2023-03-23T02:12:58;2.30;;;2.20;;
14528;SDS011;7351;51.194;4.098;2023-03-23T02:15:27;2.40;;;2.30;;
14528;SDS011;7351;51.194;4.098;2023-03-23T02:18:03;2.70;;;2.47;;
14528;SDS011;7351;51.194;4.098;2023-03-23T02:20:47;1.87;;;1.73;;
14528;SDS011;7351;51.194;4.098;2023-03-23T02:23:40;2.13;;;1.97;;
14528;SDS011;7351;51.194;4.098;2023-03-23T02:26:19;1.90;;;1.80;;
14528;SDS011;7351;51.194;4.098;2023-03-23T02:29:12;1.83;;;1.47;;
14528;SDS011;7351;51.194;4.098;2023-03-23T02:31:57;3.27;;;2.20;;
14528;SDS011;7351;51.194;4.098;2023-03-23T02:34:40;2.77;;;2.30;;
14528;SDS011;7351;51.194;4.098;2023-03-23T02:37:09;2.00;;;1.90;;
14528;SDS011;7351;51.194;4.098;2023-03-23T02:39:42;2.23;;;2.13;;
14528;SDS011;7351;51.194;4.098;2023-03-23T02:42:12;2.33;;;2.13;;
14528;SDS011;7351;51.194;4.098;2023-03-23T02:44:43;1.90;;;1.80;;
14528;SDS011;7351;51.194;4.098;2023-03-23T02:47:14;2.27;;;2.17;;
14528;SDS011;7351;51.194;4.098;2023-03-23T02:49:46;1.77;;;1.67;;
14528;SDS011;7351;51.194;4.098;2023-03-23T02:52:18;1.80;;;1.70;;
14528;SDS011;7351;51.194;4.098;2023-03-23T02:54:48;1.60;;;1.50;;
14528;SDS011;7351;51.194;4.098;2023-03-23T02:57:17;2.07;;;1.97;;
14528;SDS011;7351;51.194;4.098;2023-03-23T02:59:44;3.23;;;2.23;;
14528;SDS011;7351;51.194;4.098;2023-03-23T03:02:12;2.83;;;1.97;;
14528;SDS011;7351;51.194;4.098;2023-03-23T03:04:44;2.77;;;2.57;;
14528;SDS011;7351;51.194;4.098;2023-03-23T03:07:23;2.20;;;1.73;;
14528;SDS011;7351;51.194;4.098;2023-03-23T03:10:04;2.87;;;1.93;;
14528;SDS011;7351;51.194;4.098;2023-03-23T03:12:39;2.13;;;1.80;;
14528;SDS011;7351;51.194;4.098;2023-03-23T03:15:15;2.67;;;2.10;;
14528;SDS011;7351;51.194;4.098;2023-03-23T03:17:52;2.30;;;1.77;;
14528;SDS011;7351;51.194;4.098;2023-03-23T03:20:26;2.03;;;1.83;;
14528;SDS011;7351;51.194;4.098;2023-03-23T03:22:56;2.73;;;2.23;;
14528;SDS011;7351;51.194;4.098;2023-03-23T03:25:24;2.40;;;1.90;;
14528;SDS011;7351;51.194;4.098;2023-03-23T03:27:52;2.90;;;2.20;;
14528;SDS011;7351;51.194;4.098;2023-03-23T03:30:23;3.30;;;1.90;;
14528;SDS011;7351;51.194;4.098;2023-03-23T03:32:55;1.50;;;1.40;;
14528;SDS011;7351;51.194;4.098;2023-03-23T03:35:26;2.63;;;2.20;;
14528;SDS011;7351;51.194;4.098;2023-03-23T03:37:54;3.00;;;1.93;;
14528;SDS011;7351;51.194;4.098;2023-03-23T03:40:22;1.90;;;1.57;;
14528;SDS011;7351;51.194;4.098;2023-03-23T03:42:50;3.13;;;2.03;;
14528;SDS011;7351;51.194;4.098;2023-03-23T03:45:18;2.13;;;1.93;;
14528;SDS011;7351;51.194;4.098;2023-03-23T03:47:45;2.23;;;2.13;;
14528;SDS011;7351;51.194;4.098;2023-03-23T03:50:13;2.63;;;2.03;;
14528;SDS011;7351;51.194;4.098;2023-03-23T03:52:43;3.13;;;1.83;;
14528;SDS011;7351;51.194;4.098;2023-03-23T03:55:10;3.63;;;2.00;;
14528;SDS011;7351;51.194;4.098;2023-03-23T03:57:37;3.13;;;1.70;;
14528;SDS011;7351;51.194;4.098;2023-03-23T04:00:07;2.90;;;1.90;;
14528;SDS011;7351;51.194;4.098;2023-03-23T04:02:40;3.20;;;1.70;;
14528;SDS011;7351;51.194;4.098;2023-03-23T04:05:09;5.13;;;2.30;;
14528;SDS011;7351;51.194;4.098;2023-03-23T04:07:36;4.73;;;2.87;;
14528;SDS011;7351;51.194;4.098;2023-03-23T04:10:06;2.43;;;1.70;;
14528;SDS011;7351;51.194;4.098;2023-03-23T04:12:34;3.90;;;2.07;;
14528;SDS011;7351;51.194;4.098;2023-03-23T04:15:02;3.40;;;2.47;;
14528;SDS011;7351;51.194;4.098;2023-03-23T04:17:30;2.83;;;2.03;;
14528;SDS011;7351;51.194;4.098;2023-03-23T04:19:57;3.23;;;1.57;;
14528;SDS011;7351;51.194;4.098;2023-03-23T04:22:25;4.67;;;2.53;;
14528;SDS011;7351;51.194;4.098;2023-03-23T04:24:55;2.57;;;1.90;;
14528;SDS011;7351;51.194;4.098;2023-03-23T04:27:27;3.27;;;2.47;;
14528;SDS011;7351;51.194;4.098;2023-03-23T04:29:54;3.00;;;2.23;;
14528;SDS011;7351;51.194;4.098;2023-03-23T04:32:23;2.70;;;1.80;;
14528;SDS011;7351;51.194;4.098;2023-03-23T04:34:54;3.97;;;1.77;;
14528;SDS011;7351;51.194;4.098;2023-03-23T04:37:21;5.97;;;2.00;;
14528;SDS011;7351;51.194;4.098;2023-03-23T04:39:50;7.47;;;2.37;;
14528;SDS011;7351;51.194;4.098;2023-03-23T04:42:27;4.77;;;1.93;;
14528;SDS011;7351;51.194;4.098;2023-03-23T04:44:55;3.53;;;2.40;;
14528;SDS011;7351;51.194;4.098;2023-03-23T04:47:23;9.63;;;2.87;;
14528;SDS011;7351;51.194;4.098;2023-03-23T04:49:54;4.37;;;2.10;;
14528;SDS011;7351;51.194;4.098;2023-03-23T04:52:22;4.23;;;2.33;;
14528;SDS011;7351;51.194;4.098;2023-03-23T04:54:50;4.17;;;1.97;;
14528;SDS011;7351;51.194;4.098;2023-03-23T04:57:17;5.47;;;1.80;;
14528;SDS011;7351;51.194;4.098;2023-03-23T04:59:45;4.23;;;2.53;;
14528;SDS011;7351;51.194;4.098;2023-03-23T05:02:12;3.57;;;1.93;;
14528;SDS011;7351;51.194;4.098;2023-03-23T05:04:42;4.67;;;1.47;;
14528;SDS011;7351;51.194;4.098;2023-03-23T05:07:10;2.30;;;1.83;;
14528;SDS011;7351;51.194;4.098;2023-03-23T05:09:37;5.23;;;1.97;;
14528;SDS011;7351;51.194;4.098;2023-03-23T05:12:05;5.27;;;2.10;;
14528;SDS011;7351;51.194;4.098;2023-03-23T05:14:32;3.50;;;1.90;;
14528;SDS011;7351;51.194;4.098;2023-03-23T05:17:01;5.87;;;2.23;;
14528;SDS011;7351;51.194;4.098;2023-03-23T05:19:28;4.47;;;2.10;;
14528;SDS011;7351;51.194;4.098;2023-03-23T05:21:56;3.90;;;2.00;;
14528;SDS011;7351;51.194;4.098;2023-03-23T05:24:28;2.37;;;1.60;;
14528;SDS011;7351;51.194;4.098;2023-03-23T05:26:57;3.40;;;1.80;;
14528;SDS011;7351;51.194;4.098;2023-03-23T05:29:25;5.63;;;1.93;;
14528;SDS011;7351;51.194;4.098;2023-03-23T05:31:55;4.90;;;2.17;;
14528;SDS011;7351;51.194;4.098;2023-03-23T05:34:26;5.03;;;2.13;;
14528;SDS011;7351;51.194;4.098;2023-03-23T05:36:53;4.53;;;2.60;;
14528;SDS011;7351;51.194;4.098;2023-03-23T05:39:22;8.47;;;2.07;;
14528;SDS011;7351;51.194;4.098;2023-03-23T05:41:49;3.97;;;1.90;;
14528;SDS011;7351;51.194;4.098;2023-03-23T05:44:16;6.27;;;1.87;;
14528;SDS011;7351;51.194;4.098;2023-03-23T05:46:44;8.83;;;1.90;;
14528;SDS011;7351;51.194;4.098;2023-03-23T05:49:11;5.60;;;2.47;;
14528;SDS011;7351;51.194;4.098;2023-03-23T05:51:40;1.73;;;1.43;;
14528;SDS011;7351;51.194;4.098;2023-03-23T05:54:07;6.60;;;2.27;;
14528;SDS011;7351;51.194;4.098;2023-03-23T05:56:35;4.40;;;2.50;;
14528;SDS011;7351;51.194;4.098;2023-03-23T05:59:02;5.13;;;1.93;;
14528;SDS011;7351;51.194;4.098;2023-03-23T06:01:29;3.50;;;2.03;;
14528;SDS011;7351;51.194;4.098;2023-03-23T06:03:56;6.27;;;2.57;;
14528;SDS011;7351;51.194;4.098;2023-03-23T06:06:23;3.47;;;2.40;;
14528;SDS011;7351;51.194;4.098;2023-03-23T06:08:52;3.67;;;1.93;;
14528;SDS011;7351;51.194;4.098;2023-03-23T06:11:19;3.47;;;1.70;;
14528;SDS011;7351;51.194;4.098;2023-03-23T06:13:46;7.10;;;1.90;;
14528;SDS011;7351;51.194;4.098;2023-03-23T06:16:13;3.50;;;2.10;;
14528;SDS011;7351;51.194;4.098;2023-03-23T06:18:40;3.67;;;2.83;;
14528;SDS011;7351;51.194;4.098;2023-03-23T06:21:08;4.10;;;2.17;;
14528;SDS011;7351;51.194;4.098;2023-03-23T06:23:35;3.17;;;1.60;;
14528;SDS011;7351;51.194;4.098;2023-03-23T06:26:04;3.13;;;1.97;;
14528;SDS011;7351;51.194;4.098;2023-03-23T06:28:33;5.47;;;2.47;;
14528;SDS011;7351;51.194;4.098;2023-03-23T06:31:00;2.97;;;2.13;;
14528;SDS011;7351;51.194;4.098;2023-03-23T06:33:28;3.67;;;1.80;;
14528;SDS011;7351;51.194;4.098;2023-03-23T06:35:55;3.63;;;1.90;;
14528;SDS011;7351;51.194;4.098;2023-03-23T06:38:22;3.50;;;2.30;;
14528;SDS011;7351;51.194;4.098;2023-03-23T06:40:51;5.77;;;2.17;;
14528;SDS011;7351;51.194;4.098;2023-03-23T06:43:19;6.13;;;2.33;;
14528;SDS011;7351;51.194;4.098;2023-03-23T06:45:47;2.67;;;1.77;;
14528;SDS011;7351;51.194;4.098;2023-03-23T06:48:15;7.90;;;1.80;;
14528;SDS011;7351;51.194;4.098;2023-03-23T06:50:42;2.17;;;1.77;;
14528;SDS011;7351;51.194;4.098;2023-03-23T06:53:10;3.50;;;2.03;;
14528;SDS011;7351;51.194;4.098;2023-03-23T06:55:38;3.47;;;1.70;;
14528;SDS011;7351;51.194;4.098;2023-03-23T06:58:09;8.63;;;1.93;;
14528;SDS011;7351;51.194;4.098;2023-03-23T07:00:37;3.80;;;1.97;;
14528;SDS011;7351;51.194;4.098;2023-03-23T07:03:05;6.43;;;1.93;;
14528;SDS011;7351;51.194;4.098;2023-03-23T07:05:33;3.00;;;1.70;;
14528;SDS011;7351;51.194;4.098;2023-03-23T07:08:00;3.80;;;1.80;;
14528;SDS011;7351;51.194;4.098;2023-03-23T07:10:28;3.70;;;1.80;;
14528;SDS011;7351;51.194;4.098;2023-03-23T07:12:55;4.80;;;2.13;;
14528;SDS011;7351;51.194;4.098;2023-03-23T07:15:22;5.73;;;2.40;;
14528;SDS011;7351;51.194;4.098;2023-03-23T07:17:50;3.77;;;1.90;;
14528;SDS011;7351;51.194;4.098;2023-03-23T07:20:19;3.77;;;1.93;;
14528;SDS011;7351;51.194;4.098;2023-03-23T07:22:46;4.50;;;1.90;;
14528;SDS011;7351;51.194;4.098;2023-03-23T07:25:13;3.37;;;2.20;;
14528;SDS011;7351;51.194;4.098;2023-03-23T07:27:40;3.20;;;1.80;;
14528;SDS011;7351;51.194;4.098;2023-03-23T07:30:08;9.87;;;2.63;;
14528;SDS011;7351;51.194;4.098;2023-03-23T07:32:35;5.33;;;1.90;;
14528;SDS011;7351;51.194;4.098;2023-03-23T07:35:04;3.40;;;2.27;;
14528;SDS011;7351;51.194;4.098;2023-03-23T07:37:32;7.80;;;2.37;;
14528;SDS011;7351;51.194;4.098;2023-03-23T07:39:59;3.23;;;2.20;;
14528;SDS011;7351;51.194;4.098;2023-03-23T07:42:33;6.60;;;2.27;;
14528;SDS011;7351;51.194;4.098;2023-03-23T07:45:00;5.90;;;2.20;;
14528;SDS011;7351;51.194;4.098;2023-03-23T07:47:27;7.23;;;2.20;;
14528;SDS011;7351;51.194;4.098;2023-03-23T07:49:54;8.97;;;2.23;;
14528;SDS011;7351;51.194;4.098;2023-03-23T07:52:22;10.50;;;2.37;;
14528;SDS011;7351;51.194;4.098;2023-03-23T07:54:50;8.73;;;2.17;;
14528;SDS011;7351;51.194;4.098;2023-03-23T07:57:17;6.50;;;1.63;;
14528;SDS011;7351;51.194;4.098;2023-03-23T07:59:44;5.50;;;2.10;;
14528;SDS011;7351;51.194;4.098;2023-03-23T08:02:12;2.97;;;1.63;;
14528;SDS011;7351;51.194;4.098;2023-03-23T08:04:39;4.53;;;1.50;;
14528;SDS011;7351;51.194;4.098;2023-03-23T08:07:07;4.73;;;1.80;;
14528;SDS011;7351;51.194;4.098;2023-03-23T08:09:38;2.67;;;2.03;;
14528;SDS011;7351;51.194;4.098;2023-03-23T08:12:06;2.17;;;1.67;;
14528;SDS011;7351;51.194;4.098;2023-03-23T08:14:33;6.63;;;1.47;;
14528;SDS011;7351;51.194;4.098;2023-03-23T08:17:00;5.87;;;1.87;;
14528;SDS011;7351;51.194;4.098;2023-03-23T08:19:27;2.70;;;1.67;;
14528;SDS011;7351;51.194;4.098;2023-03-23T08:21:54;2.67;;;1.80;;
14528;SDS011;7351;51.194;4.098;2023-03-23T08:24:22;4.37;;;2.17;;
14528;SDS011;7351;51.194;4.098;2023-03-23T08:26:50;2.33;;;1.60;;
14528;SDS011;7351;51.194;4.098;2023-03-23T08:29:17;5.27;;;1.80;;
14528;SDS011;7351;51.194;4.098;2023-03-23T08:31:44;2.80;;;2.07;;
14528;SDS011;7351;51.194;4.098;2023-03-23T08:34:12;3.53;;;1.97;;
14528;SDS011;7351;51.194;4.098;2023-03-23T08:36:40;4.00;;;2.13;;
14528;SDS011;7351;51.194;4.098;2023-03-23T08:39:09;3.43;;;2.00;;
14528;SDS011;7351;51.194;4.098;2023-03-23T08:41:36;2.37;;;2.17;;
14528;SDS011;7351;51.194;4.098;2023-03-23T08:44:04;3.00;;;2.13;;
14528;SDS011;7351;51.194;4.098;2023-03-23T08:46:33;3.50;;;1.83;;
14528;SDS011;7351;51.194;4.098;2023-03-23T08:49:00;2.00;;;1.60;;
14528;SDS011;7351;51.194;4.098;2023-03-23T08:51:27;4.97;;;1.97;;
14528;SDS011;7351;51.194;4.098;2023-03-23T08:53:54;6.33;;;2.40;;
14528;SDS011;7351;51.194;4.098;2023-03-23T08:56:21;2.77;;;1.80;;
14528;SDS011;7351;51.194;4.098;2023-03-23T08:58:48;3.60;;;2.20;;
14528;SDS011;7351;51.194;4.098;2023-03-23T09:01:16;5.93;;;3.23;;
14528;SDS011;7351;51.194;4.098;2023-03-23T09:03:43;7.47;;;3.73;;
14528;SDS011;7351;51.194;4.098;2023-03-23T09:06:11;7.30;;;3.63;;
14528;SDS011;7351;51.194;4.098;2023-03-23T09:08:38;6.13;;;4.17;;
14528;SDS011;7351;51.194;4.098;2023-03-23T09:11:06;14.13;;;4.97;;
14528;SDS011;7351;51.194;4.098;2023-03-23T09:13:35;6.73;;;4.60;;
14528;SDS011;7351;51.194;4.098;2023-03-23T09:16:02;8.80;;;6.27;;
14528;SDS011;7351;51.194;4.098;2023-03-23T09:18:32;11.30;;;6.37;;
14528;SDS011;7351;51.194;4.098;2023-03-23T09:21:00;8.40;;;5.70;;
14528;SDS011;7351;51.194;4.098;2023-03-23T09:23:27;6.77;;;6.03;;
14528;SDS011;7351;51.194;4.098;2023-03-23T09:25:55;13.20;;;8.07;;
14528;SDS011;7351;51.194;4.098;2023-03-23T09:28:22;13.20;;;8.00;;
14528;SDS011;7351;51.194;4.098;2023-03-23T09:30:49;16.90;;;9.83;;
14528;SDS011;7351;51.194;4.098;2023-03-23T09:33:16;15.07;;;9.27;;
14528;SDS011;7351;51.194;4.098;2023-03-23T09:35:45;12.23;;;8.90;;
14528;SDS011;7351;51.194;4.098;2023-03-23T09:38:12;15.60;;;8.53;;
14528;SDS011;7351;51.194;4.098;2023-03-23T09:40:41;15.30;;;9.57;;
14528;SDS011;7351;51.194;4.098;2023-03-23T09:43:18;11.73;;;8.47;;
14528;SDS011;7351;51.194;4.098;2023-03-23T09:46:11;15.27;;;9.80;;
14528;SDS011;7351;51.194;4.098;2023-03-23T09:48:51;17.20;;;11.07;;
14528;SDS011;7351;51.194;4.098;2023-03-23T09:51:27;16.93;;;11.43;;
14528;SDS011;7351;51.194;4.098;2023-03-23T09:54:03;14.37;;;10.73;;
14528;SDS011;7351;51.194;4.098;2023-03-23T09:56:34;17.97;;;11.33;;
14528;SDS011;7351;51.194;4.098;2023-03-23T09:59:03;17.83;;;12.07;;
14528;SDS011;7351;51.194;4.098;2023-03-23T10:01:44;18.43;;;13.07;;
14528;SDS011;7351;51.194;4.098;2023-03-23T10:04:15;21.50;;;14.13;;
14528;SDS011;7351;51.194;4.098;2023-03-23T10:06:51;21.07;;;12.97;;
14528;SDS011;7351;51.194;4.098;2023-03-23T10:09:19;20.37;;;12.77;;
14528;SDS011;7351;51.194;4.098;2023-03-23T10:11:54;18.47;;;11.60;;
14528;SDS011;7351;51.194;4.098;2023-03-23T10:14:30;18.83;;;12.53;;
14528;SDS011;7351;51.194;4.098;2023-03-23T10:17:09;14.53;;;11.60;;
14528;SDS011;7351;51.194;4.098;2023-03-23T10:19:43;18.63;;;11.73;;
14528;SDS011;7351;51.194;4.098;2023-03-23T10:22:21;21.10;;;11.33;;
14528;SDS011;7351;51.194;4.098;2023-03-23T10:24:54;22.57;;;10.70;;
14528;SDS011;7351;51.194;4.098;2023-03-23T10:27:41;19.10;;;10.40;;
14528;SDS011;7351;51.194;4.098;2023-03-23T10:30:14;20.93;;;11.07;;
14528;SDS011;7351;51.194;4.098;2023-03-23T10:32:48;13.83;;;9.60;;
14528;SDS011;7351;51.194;4.098;2023-03-23T10:35:21;15.57;;;10.03;;
14528;SDS011;7351;51.194;4.098;2023-03-23T10:37:55;20.93;;;9.50;;
14528;SDS011;7351;51.194;4.098;2023-03-23T10:40:27;18.10;;;8.63;;
14528;SDS011;7351;51.194;4.098;2023-03-23T10:42:55;16.17;;;8.30;;
14528;SDS011;7351;51.194;4.098;2023-03-23T10:45:25;12.50;;;7.93;;
14528;SDS011;7351;51.194;4.098;2023-03-23T10:47:55;11.93;;;8.17;;
14528;SDS011;7351;51.194;4.098;2023-03-23T10:50:26;12.67;;;7.23;;
14528;SDS011;7351;51.194;4.098;2023-03-23T10:52:57;12.10;;;6.93;;
14528;SDS011;7351;51.194;4.098;2023-03-23T10:55:34;10.27;;;6.90;;
14528;SDS011;7351;51.194;4.098;2023-03-23T10:58:04;9.33;;;6.40;;
14528;SDS011;7351;51.194;4.098;2023-03-23T11:00:32;14.83;;;7.17;;
14528;SDS011;7351;51.194;4.098;2023-03-23T11:03:01;7.77;;;5.27;;
14528;SDS011;7351;51.194;4.098;2023-03-23T11:05:35;11.13;;;6.40;;
14528;SDS011;7351;51.194;4.098;2023-03-23T11:08:10;9.47;;;6.17;;
14528;SDS011;7351;51.194;4.098;2023-03-23T11:10:40;9.67;;;5.63;;
14528;SDS011;7351;51.194;4.098;2023-03-23T11:13:13;6.20;;;5.13;;
14528;SDS011;7351;51.194;4.098;2023-03-23T11:15:41;11.07;;;6.10;;
14528;SDS011;7351;51.194;4.098;2023-03-23T11:18:11;8.60;;;4.80;;
14528;SDS011;7351;51.194;4.098;2023-03-23T11:20:44;7.93;;;5.30;;
14528;SDS011;7351;51.194;4.098;2023-03-23T11:23:18;8.10;;;4.77;;
14528;SDS011;7351;51.194;4.098;2023-03-23T11:25:58;8.50;;;4.67;;
14528;SDS011;7351;51.194;4.098;2023-03-23T11:28:35;6.70;;;4.67;;
14528;SDS011;7351;51.194;4.098;2023-03-23T11:31:08;9.63;;;5.60;;
14528;SDS011;7351;51.194;4.098;2023-03-23T11:33:37;11.17;;;5.63;;
14528;SDS011;7351;51.194;4.098;2023-03-23T11:36:12;10.20;;;5.47;;
14528;SDS011;7351;51.194;4.098;2023-03-23T11:38:41;13.00;;;5.83;;
14528;SDS011;7351;51.194;4.098;2023-03-23T11:41:10;15.27;;;6.60;;
14528;SDS011;7351;51.194;4.098;2023-03-23T11:43:44;7.83;;;4.67;;
14528;SDS011;7351;51.194;4.098;2023-03-23T11:46:16;11.97;;;6.00;;
14528;SDS011;7351;51.194;4.098;2023-03-23T11:48:53;9.90;;;4.97;;
14528;SDS011;7351;51.194;4.098;2023-03-23T11:51:26;8.07;;;4.13;;
14528;SDS011;7351;51.194;4.098;2023-03-23T11:54:00;9.00;;;4.97;;
14528;SDS011;7351;51.194;4.098;2023-03-23T11:56:33;7.40;;;4.50;;
14528;SDS011;7351;51.194;4.098;2023-03-23T11:59:01;6.47;;;4.40;;
14528;SDS011;7351;51.194;4.098;2023-03-23T12:01:37;9.40;;;4.60;;
14528;SDS011;7351;51.194;4.098;2023-03-23T12:07:28;10.50;;;4.47;;
14528;SDS011;7351;51.194;4.098;2023-03-23T12:10:09;8.83;;;3.83;;
14528;SDS011;7351;51.194;4.098;2023-03-23T12:12:44;7.20;;;4.73;;
14528;SDS011;7351;51.194;4.098;2023-03-23T12:15:18;9.13;;;4.63;;
14528;SDS011;7351;51.194;4.098;2023-03-23T12:17:53;7.10;;;3.70;;
14528;SDS011;7351;51.194;4.098;2023-03-23T12:20:29;8.73;;;3.60;;
14528;SDS011;7351;51.194;4.098;2023-03-23T12:23:05;12.73;;;4.80;;
14528;SDS011;7351;51.194;4.098;2023-03-23T12:25:50;7.70;;;3.63;;
14528;SDS011;7351;51.194;4.098;2023-03-23T12:28:28;7.23;;;4.10;;
14528;SDS011;7351;51.194;4.098;2023-03-23T12:31:08;8.90;;;3.97;;
14528;SDS011;7351;51.194;4.098;2023-03-23T12:33:44;6.90;;;4.07;;
14528;SDS011;7351;51.194;4.098;2023-03-23T12:36:22;8.63;;;4.37;;
14528;SDS011;7351;51.194;4.098;2023-03-23T12:41:55;9.57;;;4.17;;
14528;SDS011;7351;51.194;4.098;2023-03-23T12:44:27;5.97;;;3.83;;
14528;SDS011;7351;51.194;4.098;2023-03-23T12:47:05;7.77;;;4.17;;
14528;SDS011;7351;51.194;4.098;2023-03-23T12:49:40;8.07;;;3.90;;
14528;SDS011;7351;51.194;4.098;2023-03-23T12:52:13;6.60;;;4.27;;
14528;SDS011;7351;51.194;4.098;2023-03-23T12:54:45;7.23;;;3.53;;
14528;SDS011;7351;51.194;4.098;2023-03-23T12:57:20;3.87;;;3.03;;
14528;SDS011;7351;51.194;4.098;2023-03-23T12:59:57;6.37;;;4.07;;
14528;SDS011;7351;51.194;4.098;2023-03-23T13:02:28;7.13;;;3.50;;
14528;SDS011;7351;51.194;4.098;2023-03-23T13:04:59;6.77;;;4.10;;
14528;SDS011;7351;51.194;4.098;2023-03-23T13:07:33;7.07;;;3.73;;
14528;SDS011;7351;51.194;4.098;2023-03-23T13:10:11;5.87;;;3.13;;
14528;SDS011;7351;51.194;4.098;2023-03-23T13:12:47;4.90;;;3.03;;
14528;SDS011;7351;51.194;4.098;2023-03-23T13:15:18;6.03;;;4.50;;
14528;SDS011;7351;51.194;4.098;2023-03-23T13:17:54;5.90;;;3.70;;
14528;SDS011;7351;51.194;4.098;2023-03-23T13:20:40;8.73;;;4.33;;
14528;SDS011;7351;51.194;4.098;2023-03-23T13:23:20;7.13;;;3.87;;
14528;SDS011;7351;51.194;4.098;2023-03-23T13:25:50;4.77;;;2.83;;
14528;SDS011;7351;51.194;4.098;2023-03-23T13:28:24;6.97;;;3.40;;
14528;SDS011;7351;51.194;4.098;2023-03-23T13:30:57;6.77;;;3.90;;
14528;SDS011;7351;51.194;4.098;2023-03-23T13:33:29;5.67;;;3.47;;
14528;SDS011;7351;51.194;4.098;2023-03-23T13:36:02;9.77;;;4.27;;
14528;SDS011;7351;51.194;4.098;2023-03-23T13:38:34;7.10;;;3.57;;
14528;SDS011;7351;51.194;4.098;2023-03-23T13:41:09;8.17;;;3.73;;
14528;SDS011;7351;51.194;4.098;2023-03-23T13:43:40;6.83;;;3.60;;
14528;SDS011;7351;51.194;4.098;2023-03-23T13:46:12;5.80;;;3.10;;
14528;SDS011;7351;51.194;4.098;2023-03-23T13:48:51;8.43;;;4.50;;
14528;SDS011;7351;51.194;4.098;2023-03-23T13:51:33;6.67;;;3.37;;
14528;SDS011;7351;51.194;4.098;2023-03-23T13:54:13;9.50;;;4.63;;
14528;SDS011;7351;51.194;4.098;2023-03-23T13:56:48;10.00;;;3.40;;
14528;SDS011;7351;51.194;4.098;2023-03-23T13:59:35;7.70;;;3.80;;
14528;SDS011;7351;51.194;4.098;2023-03-23T14:02:28;7.37;;;3.17;;
14528;SDS011;7351;51.194;4.098;2023-03-23T14:05:09;9.47;;;3.87;;
14528;SDS011;7351;51.194;4.098;2023-03-23T14:07:54;8.43;;;4.47;;
14528;SDS011;7351;51.194;4.098;2023-03-23T14:10:25;12.20;;;4.33;;
14528;SDS011;7351;51.194;4.098;2023-03-23T14:12:59;11.60;;;4.37;;
14528;SDS011;7351;51.194;4.098;2023-03-23T14:15:29;9.93;;;4.27;;
14528;SDS011;7351;51.194;4.098;2023-03-23T14:17:57;6.53;;;3.77;;
14528;SDS011;7351;51.194;4.098;2023-03-23T14:20:31;5.77;;;2.83;;
14528;SDS011;7351;51.194;4.098;2023-03-23T14:22:59;9.73;;;3.43;;
14528;SDS011;7351;51.194;4.098;2023-03-23T14:25:27;10.70;;;4.13;;
14528;SDS011;7351;51.194;4.098;2023-03-23T14:27:57;13.50;;;4.67;;
14528;SDS011;7351;51.194;4.098;2023-03-23T14:30:24;13.03;;;4.03;;
14528;SDS011;7351;51.194;4.098;2023-03-23T14:32:54;12.03;;;3.40;;
14528;SDS011;7351;51.194;4.098;2023-03-23T14:35:31;8.53;;;4.40;;
14528;SDS011;7351;51.194;4.098;2023-03-23T14:37:59;9.63;;;3.13;;
14528;SDS011;7351;51.194;4.098;2023-03-23T14:40:27;8.17;;;3.43;;
14528;SDS011;7351;51.194;4.098;2023-03-23T14:42:56;8.23;;;4.23;;
14528;SDS011;7351;51.194;4.098;2023-03-23T14:45:24;9.30;;;3.07;;
14528;SDS011;7351;51.194;4.098;2023-03-23T14:47:51;8.93;;;4.17;;
14528;SDS011;7351;51.194;4.098;2023-03-23T14:50:24;8.37;;;3.97;;
14528;SDS011;7351;51.194;4.098;2023-03-23T14:52:56;8.73;;;3.93;;
14528;SDS011;7351;51.194;4.098;2023-03-23T14:55:25;7.13;;;3.00;;
14528;SDS011;7351;51.194;4.098;2023-03-23T14:57:56;9.17;;;4.53;;
14528;SDS011;7351;51.194;4.098;2023-03-23T15:00:33;8.87;;;4.13;;
14528;SDS011;7351;51.194;4.098;2023-03-23T15:03:04;12.00;;;3.33;;
14528;SDS011;7351;51.194;4.098;2023-03-23T15:05:37;8.57;;;3.83;;
14528;SDS011;7351;51.194;4.098;2023-03-23T15:08:07;10.40;;;3.50;;
14528;SDS011;7351;51.194;4.098;2023-03-23T15:10:39;14.83;;;3.73;;
14528;SDS011;7351;51.194;4.098;2023-03-23T15:13:09;10.97;;;4.13;;
14528;SDS011;7351;51.194;4.098;2023-03-23T15:15:38;8.17;;;3.93;;
14528;SDS011;7351;51.194;4.098;2023-03-23T15:18:14;12.27;;;3.67;;
14528;SDS011;7351;51.194;4.098;2023-03-23T15:20:53;9.30;;;4.70;;
14528;SDS011;7351;51.194;4.098;2023-03-23T15:23:21;7.43;;;3.90;;
14528;SDS011;7351;51.194;4.098;2023-03-23T15:25:53;17.20;;;5.17;;
14528;SDS011;7351;51.194;4.098;2023-03-23T15:28:22;10.40;;;4.73;;